sensor_id;sensor_type;location;lat;lon;timestamp;pressure;altitude;pressure_sealevel;temperature;humidity
23303;BME280;11820;48.738;9.092;2022-08-03T00:00:51;96388.03;;;21.56;nan
23303;BME280;11820;48.738;9.092;2022-08-03T00:03:16;96382.88;;;21.81;nan
23303;BME280;11820;48.738;9.092;2022-08-03T00:05:41;96376.25;;;21.68;nan
23303;BME280;11820;48.738;9.092;2022-08-03T00:08:07;96378.34;;;21.61;nan
23303;BME280;11820;48.738;9.092;2022-08-03T00:10:32;96374.41;;;21.69;nan
23303;BME280;11820;48.738;9.092;2022-08-03T00:12:57;96376.06;;;21.85;nan
23303;BME280;11820;48.738;9.092;2022-08-03T00:15:23;96379.22;;;21.87;nan
23303;BME280;11820;48.738;9.092;2022-08-03T00:17:48;96375.47;;;21.78;nan
23303;BME280;11820;48.738;9.092;2022-08-03T00:20:13;96376.81;;;21.75;nan
23303;BME280;11820;48.738;9.092;2022-08-03T00:22:39;96384.88;;;21.54;nan
23303;BME280;11820;48.738;9.092;2022-08-03T00:25:04;96377.78;;;21.59;nan
23303;BME280;11820;48.738;9.092;2022-08-03T00:27:30;96372.88;;;21.83;nan
23303;BME280;11820;48.738;9.092;2022-08-03T00:29:55;96380.25;;;21.86;nan
23303;BME280;11820;48.738;9.092;2022-08-03T00:32:21;96371.81;;;21.79;nan
23303;BME280;11820;48.738;9.092;2022-08-03T00:34:46;96372.88;;;21.83;nan
23303;BME280;11820;48.738;9.092;2022-08-03T00:37:11;96374.47;;;21.89;nan
23303;BME280;11820;48.738;9.092;2022-08-03T00:39:37;96364.94;;;21.78;nan
23303;BME280;11820;48.738;9.092;2022-08-03T00:42:06;96369.69;;;21.76;nan
23303;BME280;11820;48.738;9.092;2022-08-03T00:44:38;96371.28;;;21.77;nan
23303;BME280;11820;48.738;9.092;2022-08-03T00:47:05;96364.72;;;21.84;nan
23303;BME280;11820;48.738;9.092;2022-08-03T00:49:30;96373.88;;;21.62;nan
23303;BME280;11820;48.738;9.092;2022-08-03T00:51:56;96369.16;;;21.74;nan
23303;BME280;11820;48.738;9.092;2022-08-03T00:54:22;96365.47;;;21.70;nan
23303;BME280;11820;48.738;9.092;2022-08-03T00:56:49;96360.44;;;21.68;nan
23303;BME280;11820;48.738;9.092;2022-08-03T00:59:15;96364.41;;;21.71;nan
23303;BME280;11820;48.738;9.092;2022-08-03T01:01:40;96367.09;;;21.86;nan
23303;BME280;11820;48.738;9.092;2022-08-03T01:04:06;96361.53;;;21.77;nan
23303;BME280;11820;48.738;9.092;2022-08-03T01:07:11;96358.09;;;21.67;nan
23303;BME280;11820;48.738;9.092;2022-08-03T01:12:40;96352.25;;;21.60;nan
23303;BME280;11820;48.738;9.092;2022-08-03T01:15:16;96350.16;;;21.57;nan
23303;BME280;11820;48.738;9.092;2022-08-03T01:18:17;96349.06;;;21.43;nan
23303;BME280;11820;48.738;9.092;2022-08-03T01:20:47;96350.81;;;21.23;nan
23303;BME280;11820;48.738;9.092;2022-08-03T01:26:33;96352.19;;;21.35;nan
23303;BME280;11820;48.738;9.092;2022-08-03T01:30:08;96344.53;;;21.34;nan
23303;BME280;11820;48.738;9.092;2022-08-03T01:32:07;96340.34;;;21.42;nan
23303;BME280;11820;48.738;9.092;2022-08-03T01:34:40;96334.03;;;21.38;nan
23303;BME280;11820;48.738;9.092;2022-08-03T01:37:08;96328.47;;;21.30;nan
23303;BME280;11820;48.738;9.092;2022-08-03T01:39:36;96341.06;;;21.18;nan
23303;BME280;11820;48.738;9.092;2022-08-03T01:42:05;96336.34;;;21.20;nan
23303;BME280;11820;48.738;9.092;2022-08-03T01:44:36;96332.16;;;21.29;nan
23303;BME280;11820;48.738;9.092;2022-08-03T01:47:03;96329.03;;;21.32;nan
23303;BME280;11820;48.738;9.092;2022-08-03T01:49:34;96333.72;;;21.25;nan
23303;BME280;11820;48.738;9.092;2022-08-03T01:52:02;96327.69;;;21.30;nan
23303;BME280;11820;48.738;9.092;2022-08-03T01:54:28;96329.03;;;21.32;nan
23303;BME280;11820;48.738;9.092;2022-08-03T01:56:56;96330.00;;;21.16;nan
23303;BME280;11820;48.738;9.092;2022-08-03T01:59:24;96329.69;;;21.03;nan
23303;BME280;11820;48.738;9.092;2022-08-03T02:01:50;96332.09;;;21.14;nan
23303;BME280;11820;48.738;9.092;2022-08-03T02:04:17;96321.59;;;21.24;nan
23303;BME280;11820;48.738;9.092;2022-08-03T02:06:44;96325.28;;;21.18;nan
23303;BME280;11820;48.738;9.092;2022-08-03T02:09:11;96329.47;;;21.09;nan
23303;BME280;11820;48.738;9.092;2022-08-03T02:11:38;96326.78;;;21.04;nan
23303;BME280;11820;48.738;9.092;2022-08-03T02:14:04;96318.94;;;21.09;nan
23303;BME280;11820;48.738;9.092;2022-08-03T02:16:32;96317.34;;;21.08;nan
23303;BME280;11820;48.738;9.092;2022-08-03T02:19:01;96321.84;;;21.13;nan
23303;BME280;11820;48.738;9.092;2022-08-03T02:21:29;96316.63;;;21.23;nan
23303;BME280;11820;48.738;9.092;2022-08-03T02:23:56;96324.66;;;20.96;nan
23303;BME280;11820;48.738;9.092;2022-08-03T02:26:23;96326.56;;;21.11;nan
23303;BME280;11820;48.738;9.092;2022-08-03T02:28:51;96325.47;;;20.97;nan
23303;BME280;11820;48.738;9.092;2022-08-03T02:31:23;96323.59;;;20.92;nan
23303;BME280;11820;48.738;9.092;2022-08-03T02:33:53;96326.09;;;20.72;nan
23303;BME280;11820;48.738;9.092;2022-08-03T02:36:28;96328.03;;;20.87;nan
23303;BME280;11820;48.738;9.092;2022-08-03T02:38:57;96324.16;;;21.04;nan
23303;BME280;11820;48.738;9.092;2022-08-03T02:41:28;96317.31;;;20.98;nan
23303;BME280;11820;48.738;9.092;2022-08-03T02:43:56;96320.38;;;20.80;nan
23303;BME280;11820;48.738;9.092;2022-08-03T02:46:25;96322.22;;;20.85;nan
23303;BME280;11820;48.738;9.092;2022-08-03T02:48:53;96322.53;;;20.93;nan
23303;BME280;11820;48.738;9.092;2022-08-03T02:51:19;96315.09;;;20.80;nan
23303;BME280;11820;48.738;9.092;2022-08-03T02:53:47;96315.41;;;20.84;nan
23303;BME280;11820;48.738;9.092;2022-08-03T02:56:12;96317.03;;;20.95;nan
23303;BME280;11820;48.738;9.092;2022-08-03T02:58:41;96319.31;;;20.81;nan
23303;BME280;11820;48.738;9.092;2022-08-03T03:01:08;96312.25;;;20.87;nan
23303;BME280;11820;48.738;9.092;2022-08-03T03:03:34;96313.63;;;20.99;nan
23303;BME280;11820;48.738;9.092;2022-08-03T03:06:00;96316.69;;;20.81;nan
23303;BME280;11820;48.738;9.092;2022-08-03T03:08:26;96320.38;;;20.80;nan
23303;BME280;11820;48.738;9.092;2022-08-03T03:10:54;96317.78;;;20.85;nan
23303;BME280;11820;48.738;9.092;2022-08-03T03:13:20;96320.84;;;20.77;nan
23303;BME280;11820;48.738;9.092;2022-08-03T03:15:47;96309.09;;;20.85;nan
23303;BME280;11820;48.738;9.092;2022-08-03T03:18:13;96313.00;;;20.82;nan
23303;BME280;11820;48.738;9.092;2022-08-03T03:20:39;96316.09;;;20.74;nan
23303;BME280;11820;48.738;9.092;2022-08-03T03:23:05;96309.91;;;20.85;nan
23303;BME280;11820;48.738;9.092;2022-08-03T03:25:33;96308.66;;;21.03;nan
23303;BME280;11820;48.738;9.092;2022-08-03T03:27:59;96309.63;;;20.87;nan
23303;BME280;11820;48.738;9.092;2022-08-03T03:30:25;96308.22;;;20.79;nan
23303;BME280;11820;48.738;9.092;2022-08-03T03:32:51;96305.69;;;20.84;nan
23303;BME280;11820;48.738;9.092;2022-08-03T03:35:17;96310.97;;;20.89;nan
23303;BME280;11820;48.738;9.092;2022-08-03T03:37:42;96311.44;;;20.81;nan
23303;BME280;11820;48.738;9.092;2022-08-03T03:40:08;96313.72;;;20.68;nan
23303;BME280;11820;48.738;9.092;2022-08-03T03:42:34;96322.16;;;20.75;nan
23303;BME280;11820;48.738;9.092;2022-08-03T03:45:03;96317.09;;;20.63;nan
23303;BME280;11820;48.738;9.092;2022-08-03T03:47:28;96313.88;;;20.51;nan
23303;BME280;11820;48.738;9.092;2022-08-03T03:49:56;96317.81;;;20.49;nan
23303;BME280;11820;48.738;9.092;2022-08-03T03:52:21;96313.41;;;20.59;nan
23303;BME280;11820;48.738;9.092;2022-08-03T03:54:47;96314.47;;;20.63;nan
23303;BME280;11820;48.738;9.092;2022-08-03T03:57:12;96307.06;;;20.55;nan
23303;BME280;11820;48.738;9.092;2022-08-03T03:59:39;96308.66;;;20.56;nan
23303;BME280;11820;48.738;9.092;2022-08-03T04:02:05;96305.75;;;20.58;nan
23303;BME280;11820;48.738;9.092;2022-08-03T04:04:32;96304.19;;;20.57;nan
23303;BME280;11820;48.738;9.092;2022-08-03T04:07:17;96306.06;;;20.61;nan
23303;BME280;11820;48.738;9.092;2022-08-03T04:10:02;96304.75;;;20.64;nan
23303;BME280;11820;48.738;9.092;2022-08-03T04:12:47;96308.16;;;20.64;nan
23303;BME280;11820;48.738;9.092;2022-08-03T04:15:19;96307.34;;;20.59;nan
23303;BME280;11820;48.738;9.092;2022-08-03T04:17:47;96308.94;;;20.60;nan
23303;BME280;11820;48.738;9.092;2022-08-03T04:20:16;96314.16;;;20.55;nan
23303;BME280;11820;48.738;9.092;2022-08-03T04:22:44;96315.75;;;20.61;nan
23303;BME280;11820;48.738;9.092;2022-08-03T04:25:15;96318.81;;;20.43;nan
23303;BME280;11820;48.738;9.092;2022-08-03T04:27:45;96321.22;;;20.49;nan
23303;BME280;11820;48.738;9.092;2022-08-03T04:30:11;96316.78;;;20.55;nan
23303;BME280;11820;48.738;9.092;2022-08-03T04:32:38;96318.59;;;20.49;nan
23303;BME280;11820;48.738;9.092;2022-08-03T04:35:05;96320.22;;;20.55;nan
23303;BME280;11820;48.738;9.092;2022-08-03T04:37:39;96322.34;;;20.58;nan
23303;BME280;11820;48.738;9.092;2022-08-03T04:40:08;96329.38;;;20.53;nan
23303;BME280;11820;48.738;9.092;2022-08-03T04:42:36;96332.31;;;20.56;nan
23303;BME280;11820;48.738;9.092;2022-08-03T04:45:04;96328.41;;;20.64;nan
23303;BME280;11820;48.738;9.092;2022-08-03T04:47:34;96330.75;;;20.60;nan
23303;BME280;11820;48.738;9.092;2022-08-03T04:50:01;96336.06;;;20.70;nan
23303;BME280;11820;48.738;9.092;2022-08-03T04:52:27;96335.53;;;20.68;nan
23303;BME280;11820;48.738;9.092;2022-08-03T04:54:52;96340.78;;;20.68;nan
23303;BME280;11820;48.738;9.092;2022-08-03T04:57:18;96341.34;;;20.75;nan
23303;BME280;11820;48.738;9.092;2022-08-03T04:59:43;96337.78;;;20.91;nan
23303;BME280;11820;48.738;9.092;2022-08-03T05:02:09;96342.50;;;20.89;nan
23303;BME280;11820;48.738;9.092;2022-08-03T05:04:34;96337.78;;;20.91;nan
23303;BME280;11820;48.738;9.092;2022-08-03T05:06:59;96341.50;;;21.00;nan
23303;BME280;11820;48.738;9.092;2022-08-03T05:09:25;96338.88;;;21.05;nan
23303;BME280;11820;48.738;9.092;2022-08-03T05:11:50;96341.59;;;21.15;nan
23303;BME280;11820;48.738;9.092;2022-08-03T05:14:15;96333.91;;;21.09;nan
23303;BME280;11820;48.738;9.092;2022-08-03T05:16:41;96341.59;;;21.20;nan
23303;BME280;11820;48.738;9.092;2022-08-03T05:19:06;96337.69;;;21.28;nan
23303;BME280;11820;48.738;9.092;2022-08-03T05:21:31;96345.28;;;21.24;nan
23303;BME280;11820;48.738;9.092;2022-08-03T05:23:57;96346.44;;;21.48;nan
23303;BME280;11820;48.738;9.092;2022-08-03T05:26:22;96339.06;;;21.45;nan
23303;BME280;11820;48.738;9.092;2022-08-03T05:28:47;96344.06;;;21.51;nan
23303;BME280;11820;48.738;9.092;2022-08-03T05:31:13;96340.66;;;21.56;nan
23303;BME280;11820;48.738;9.092;2022-08-03T05:33:38;96336.50;;;21.70;nan
23303;BME280;11820;48.738;9.092;2022-08-03T05:36:04;96342.84;;;21.79;nan
23303;BME280;11820;48.738;9.092;2022-08-03T05:38:31;96343.38;;;21.91;nan
23303;BME280;11820;48.738;9.092;2022-08-03T05:40:57;96342.84;;;22.04;nan
23303;BME280;11820;48.738;9.092;2022-08-03T05:43:22;96338.38;;;22.19;nan
23303;BME280;11820;48.738;9.092;2022-08-03T05:45:48;96344.47;;;22.35;nan
23303;BME280;11820;48.738;9.092;2022-08-03T05:48:13;96345.00;;;22.42;nan
23303;BME280;11820;48.738;9.092;2022-08-03T05:50:39;96343.69;;;22.54;nan
23303;BME280;11820;48.738;9.092;2022-08-03T05:53:04;96334.72;;;22.55;nan
23303;BME280;11820;48.738;9.092;2022-08-03T05:55:30;96338.91;;;22.61;nan
23303;BME280;11820;48.738;9.092;2022-08-03T05:57:55;96337.06;;;22.72;nan
23303;BME280;11820;48.738;9.092;2022-08-03T06:00:20;96337.03;;;22.77;nan
23303;BME280;11820;48.738;9.092;2022-08-03T06:02:46;96342.28;;;22.82;nan
23303;BME280;11820;48.738;9.092;2022-08-03T06:05:11;96338.59;;;22.88;nan
23303;BME280;11820;48.738;9.092;2022-08-03T06:07:36;96340.19;;;22.89;nan
23303;BME280;11820;48.738;9.092;2022-08-03T06:10:03;96338.84;;;22.91;nan
23303;BME280;11820;48.738;9.092;2022-08-03T06:12:29;96338.56;;;22.98;nan
23303;BME280;11820;48.738;9.092;2022-08-03T06:14:54;96346.19;;;23.04;nan
23303;BME280;11820;48.738;9.092;2022-08-03T06:17:20;96348.00;;;23.08;nan
23303;BME280;11820;48.738;9.092;2022-08-03T06:19:45;96338.00;;;23.16;nan
23303;BME280;11820;48.738;9.092;2022-08-03T06:22:10;96343.25;;;23.20;nan
23303;BME280;11820;48.738;9.092;2022-08-03T06:24:36;96344.00;;;23.31;nan
23303;BME280;11820;48.738;9.092;2022-08-03T06:27:01;96347.94;;;23.33;nan
23303;BME280;11820;48.738;9.092;2022-08-03T06:29:26;96344.22;;;23.44;nan
23303;BME280;11820;48.738;9.092;2022-08-03T06:31:52;96343.16;;;23.45;nan
23303;BME280;11820;48.738;9.092;2022-08-03T06:34:17;96346.31;;;23.47;nan
23303;BME280;11820;48.738;9.092;2022-08-03T06:36:43;96343.59;;;23.57;nan
23303;BME280;11820;48.738;9.092;2022-08-03T06:39:08;96344.66;;;23.61;nan
23303;BME280;11820;48.738;9.092;2022-08-03T06:41:34;96337.22;;;23.68;nan
23303;BME280;11820;48.738;9.092;2022-08-03T06:43:59;96334.81;;;23.72;nan
23303;BME280;11820;48.738;9.092;2022-08-03T06:46:24;96344.00;;;23.79;nan
23303;BME280;11820;48.738;9.092;2022-08-03T06:48:50;96344.00;;;23.79;nan
23303;BME280;11820;48.738;9.092;2022-08-03T06:51:15;96355.09;;;23.86;nan
23303;BME280;11820;48.738;9.092;2022-08-03T06:53:41;96347.16;;;23.86;nan
23303;BME280;11820;48.738;9.092;2022-08-03T06:56:07;96352.44;;;23.86;nan
23303;BME280;11820;48.738;9.092;2022-08-03T06:58:33;96348.22;;;23.90;nan
23303;BME280;11820;48.738;9.092;2022-08-03T07:00:58;96354.22;;;24.01;nan
23303;BME280;11820;48.738;9.092;2022-08-03T07:03:23;96354.44;;;24.04;nan
23303;BME280;11820;48.738;9.092;2022-08-03T07:05:49;96346.47;;;24.09;nan
23303;BME280;11820;48.738;9.092;2022-08-03T07:08:15;96351.75;;;24.14;nan
23303;BME280;11820;48.738;9.092;2022-08-03T07:10:41;96355.97;;;24.15;nan
23303;BME280;11820;48.738;9.092;2022-08-03T07:13:06;96353.22;;;24.25;nan
23303;BME280;11820;48.738;9.092;2022-08-03T07:15:33;96354.22;;;24.34;nan
23303;BME280;11820;48.738;9.092;2022-08-03T07:17:58;96357.09;;;24.38;nan
23303;BME280;11820;48.738;9.092;2022-08-03T07:20:24;96357.34;;;24.41;nan
23303;BME280;11820;48.738;9.092;2022-08-03T07:22:49;96360.94;;;24.50;nan
23303;BME280;11820;48.738;9.092;2022-08-03T07:25:15;96355.44;;;24.52;nan
23303;BME280;11820;48.738;9.092;2022-08-03T07:27:44;96355.88;;;24.59;nan
23303;BME280;11820;48.738;9.092;2022-08-03T07:30:10;96350.28;;;24.65;nan
23303;BME280;11820;48.738;9.092;2022-08-03T07:32:35;96358.16;;;24.70;nan
23303;BME280;11820;48.738;9.092;2022-08-03T07:35:02;96367.72;;;24.66;nan
23303;BME280;11820;48.738;9.092;2022-08-03T07:37:28;96360.31;;;24.68;nan
23303;BME280;11820;48.738;9.092;2022-08-03T07:39:54;96357.09;;;24.71;nan
23303;BME280;11820;48.738;9.092;2022-08-03T07:42:19;96353.63;;;24.71;nan
23303;BME280;11820;48.738;9.092;2022-08-03T07:44:44;96363.13;;;24.77;nan
23303;BME280;11820;48.738;9.092;2022-08-03T07:47:09;96366.84;;;24.99;nan
23303;BME280;11820;48.738;9.092;2022-08-03T07:49:40;96354.47;;;24.94;nan
23303;BME280;11820;48.738;9.092;2022-08-03T07:52:05;96366.63;;;24.95;nan
23303;BME280;11820;48.738;9.092;2022-08-03T07:54:49;96362.63;;;24.98;nan
23303;BME280;11820;48.738;9.092;2022-08-03T07:57:14;96356.50;;;25.02;nan
23303;BME280;11820;48.738;9.092;2022-08-03T07:59:39;96355.47;;;24.98;nan
23303;BME280;11820;48.738;9.092;2022-08-03T08:02:05;96362.56;;;25.03;nan
23303;BME280;11820;48.738;9.092;2022-08-03T08:04:31;96362.31;;;25.04;nan
23303;BME280;11820;48.738;9.092;2022-08-03T08:06:56;96358.53;;;25.10;nan
23303;BME280;11820;48.738;9.092;2022-08-03T08:09:21;96352.94;;;25.12;nan
23303;BME280;11820;48.738;9.092;2022-08-03T08:11:48;96353.69;;;25.17;nan
23303;BME280;11820;48.738;9.092;2022-08-03T08:14:13;96353.31;;;25.29;nan
23303;BME280;11820;48.738;9.092;2022-08-03T08:16:39;96352.22;;;25.30;nan
23303;BME280;11820;48.738;9.092;2022-08-03T08:19:04;96352.06;;;25.45;nan
23303;BME280;11820;48.738;9.092;2022-08-03T08:21:29;96356.72;;;25.53;nan
23303;BME280;11820;48.738;9.092;2022-08-03T08:23:54;96348.91;;;25.43;nan
23303;BME280;11820;48.738;9.092;2022-08-03T08:26:20;96359.00;;;25.41;nan
23303;BME280;11820;48.738;9.092;2022-08-03T08:28:45;96350.41;;;25.49;nan
23303;BME280;11820;48.738;9.092;2022-08-03T08:31:10;96352.50;;;25.52;nan
23303;BME280;11820;48.738;9.092;2022-08-03T08:33:36;96354.34;;;25.51;nan
23303;BME280;11820;48.738;9.092;2022-08-03T08:36:01;96359.53;;;25.61;nan
23303;BME280;11820;48.738;9.092;2022-08-03T08:38:26;96353.06;;;25.67;nan
23303;BME280;11820;48.738;9.092;2022-08-03T08:40:54;96346.94;;;25.72;nan
23303;BME280;11820;48.738;9.092;2022-08-03T08:43:20;96351.72;;;25.70;nan
23303;BME280;11820;48.738;9.092;2022-08-03T08:45:48;96348.00;;;25.71;nan
23303;BME280;11820;48.738;9.092;2022-08-03T08:48:14;96347.44;;;25.74;nan
23303;BME280;11820;48.738;9.092;2022-08-03T08:50:42;96336.81;;;25.74;nan
23303;BME280;11820;48.738;9.092;2022-08-03T08:53:10;96344.13;;;25.82;nan
23303;BME280;11820;48.738;9.092;2022-08-03T08:55:36;96352.31;;;26.04;nan
23303;BME280;11820;48.738;9.092;2022-08-03T08:58:04;96354.81;;;25.95;nan
23303;BME280;11820;48.738;9.092;2022-08-03T09:00:30;96352.47;;;25.94;nan
23303;BME280;11820;48.738;9.092;2022-08-03T09:02:56;96344.81;;;26.24;nan
23303;BME280;11820;48.738;9.092;2022-08-03T09:05:21;96346.53;;;26.34;nan
23303;BME280;11820;48.738;9.092;2022-08-03T09:07:47;96347.91;;;26.50;nan
23303;BME280;11820;48.738;9.092;2022-08-03T09:10:15;96351.09;;;26.47;nan
23303;BME280;11820;48.738;9.092;2022-08-03T09:12:48;96345.44;;;26.35;nan
23303;BME280;11820;48.738;9.092;2022-08-03T09:17:45;96349.75;;;26.31;nan
23303;BME280;11820;48.738;9.092;2022-08-03T09:20:11;96344.78;;;26.29;nan
23303;BME280;11820;48.738;9.092;2022-08-03T09:27:53;96340.50;;;26.47;nan
23303;BME280;11820;48.738;9.092;2022-08-03T09:30:19;96346.13;;;26.59;nan
23303;BME280;11820;48.738;9.092;2022-08-03T09:32:45;96336.19;;;26.51;nan
23303;BME280;11820;48.738;9.092;2022-08-03T09:35:12;96346.66;;;26.74;nan
23303;BME280;11820;48.738;9.092;2022-08-03T09:37:38;96342.13;;;26.61;nan
23303;BME280;11820;48.738;9.092;2022-08-03T09:40:05;96339.09;;;26.67;nan
23303;BME280;11820;48.738;9.092;2022-08-03T09:42:30;96343.69;;;27.21;nan
23303;BME280;11820;48.738;9.092;2022-08-03T09:44:59;96340.63;;;27.14;nan
23303;BME280;11820;48.738;9.092;2022-08-03T09:47:30;96338.34;;;27.34;nan
23303;BME280;11820;48.738;9.092;2022-08-03T09:50:06;96330.19;;;27.17;nan
23303;BME280;11820;48.738;9.092;2022-08-03T09:52:35;96336.88;;;27.42;nan
23303;BME280;11820;48.738;9.092;2022-08-03T09:55:07;96332.94;;;27.39;nan
23303;BME280;11820;48.738;9.092;2022-08-03T09:57:33;96333.81;;;27.48;nan
23303;BME280;11820;48.738;9.092;2022-08-03T10:00:28;96332.34;;;27.91;nan
23303;BME280;11820;48.738;9.092;2022-08-03T10:03:03;96338.00;;;27.90;nan
23303;BME280;11820;48.738;9.092;2022-08-03T10:05:32;96330.44;;;28.05;nan
23303;BME280;11820;48.738;9.092;2022-08-03T10:07:58;96336.78;;;28.31;nan
23303;BME280;11820;48.738;9.092;2022-08-03T10:10:23;96320.56;;;28.06;nan
23303;BME280;11820;48.738;9.092;2022-08-03T10:12:49;96325.97;;;28.14;nan
23303;BME280;11820;48.738;9.092;2022-08-03T10:15:14;96320.81;;;28.31;nan
23303;BME280;11820;48.738;9.092;2022-08-03T10:17:40;96319.56;;;28.37;nan
23303;BME280;11820;48.738;9.092;2022-08-03T10:20:08;96321.94;;;28.39;nan
23303;BME280;11820;48.738;9.092;2022-08-03T10:22:35;96312.69;;;28.36;nan
23303;BME280;11820;48.738;9.092;2022-08-03T10:25:15;96311.50;;;28.50;nan
23303;BME280;11820;48.738;9.092;2022-08-03T10:27:46;96307.84;;;28.68;nan
23303;BME280;11820;48.738;9.092;2022-08-03T10:30:12;96319.38;;;28.86;nan
23303;BME280;11820;48.738;9.092;2022-08-03T10:32:48;96306.31;;;28.45;nan
23303;BME280;11820;48.738;9.092;2022-08-03T10:35:19;96313.22;;;28.77;nan
23303;BME280;11820;48.738;9.092;2022-08-03T10:37:57;96312.47;;;28.85;nan
23303;BME280;11820;48.738;9.092;2022-08-03T10:40:25;96313.53;;;28.75;nan
23303;BME280;11820;48.738;9.092;2022-08-03T10:42:53;96305.53;;;28.75;nan
23303;BME280;11820;48.738;9.092;2022-08-03T10:45:25;96300.34;;;28.70;nan
23303;BME280;11820;48.738;9.092;2022-08-03T10:47:52;96300.00;;;28.94;nan
23303;BME280;11820;48.738;9.092;2022-08-03T10:50:22;96294.22;;;29.00;nan
23303;BME280;11820;48.738;9.092;2022-08-03T10:53:03;96289.09;;;29.12;nan
23303;BME280;11820;48.738;9.092;2022-08-03T10:58:45;96285.69;;;29.29;nan
23303;BME280;11820;48.738;9.092;2022-08-03T11:01:11;96290.41;;;29.32;nan
23303;BME280;11820;48.738;9.092;2022-08-03T11:06:22;96281.94;;;29.30;nan
23303;BME280;11820;48.738;9.092;2022-08-03T11:11:38;96288.09;;;29.47;nan
23303;BME280;11820;48.738;9.092;2022-08-03T11:14:05;96278.22;;;29.48;nan
23303;BME280;11820;48.738;9.092;2022-08-03T11:16:37;96284.38;;;29.74;nan
23303;BME280;11820;48.738;9.092;2022-08-03T11:19:09;96282.47;;;29.74;nan
23303;BME280;11820;48.738;9.092;2022-08-03T11:38:01;96264.81;;;30.49;nan
23303;BME280;11820;48.738;9.092;2022-08-03T11:43:42;96256.50;;;30.59;nan
23303;BME280;11820;48.738;9.092;2022-08-03T11:45:59;96255.06;;;30.62;nan
23303;BME280;11820;48.738;9.092;2022-08-03T11:48:28;96253.03;;;30.59;nan
23303;BME280;11820;48.738;9.092;2022-08-03T11:50:58;96260.66;;;30.77;nan
23303;BME280;11820;48.738;9.092;2022-08-03T11:53:24;96254.53;;;30.77;nan
23303;BME280;11820;48.738;9.092;2022-08-03T11:55:49;96245.75;;;30.76;nan
23303;BME280;11820;48.738;9.092;2022-08-03T11:58:21;96252.66;;;30.77;nan
23303;BME280;11820;48.738;9.092;2022-08-03T12:00:48;96246.81;;;31.13;nan
23303;BME280;11820;48.738;9.092;2022-08-03T12:03:16;96238.38;;;31.02;nan
23303;BME280;11820;48.738;9.092;2022-08-03T12:08:11;96247.06;;;31.49;nan
23303;BME280;11820;48.738;9.092;2022-08-03T12:10:37;96246.00;;;31.21;nan
23303;BME280;11820;48.738;9.092;2022-08-03T12:13:04;96245.75;;;31.34;nan
23303;BME280;11820;48.738;9.092;2022-08-03T12:15:32;96247.38;;;31.47;nan
23303;BME280;11820;48.738;9.092;2022-08-03T12:18:07;96251.97;;;31.47;nan
23303;BME280;11820;48.738;9.092;2022-08-03T12:20:36;96247.47;;;31.80;nan
23303;BME280;11820;48.738;9.092;2022-08-03T12:23:05;96242.66;;;31.73;nan
23303;BME280;11820;48.738;9.092;2022-08-03T12:25:33;96237.41;;;31.97;nan
23303;BME280;11820;48.738;9.092;2022-08-03T12:30:45;96238.22;;;32.42;nan
23303;BME280;11820;48.738;9.092;2022-08-03T12:33:16;96226.13;;;32.24;nan
23303;BME280;11820;48.738;9.092;2022-08-03T12:35:44;96230.19;;;32.54;nan
23303;BME280;11820;48.738;9.092;2022-08-03T12:38:11;96234.47;;;32.55;nan
23303;BME280;11820;48.738;9.092;2022-08-03T12:40:37;96231.03;;;32.78;nan
23303;BME280;11820;48.738;9.092;2022-08-03T12:43:13;96228.13;;;32.83;nan
23303;BME280;11820;48.738;9.092;2022-08-03T12:45:39;96233.84;;;32.82;nan
23303;BME280;11820;48.738;9.092;2022-08-03T12:48:08;96226.56;;;33.30;nan
23303;BME280;11820;48.738;9.092;2022-08-03T12:50:36;96218.84;;;34.66;nan
23303;BME280;11820;48.738;9.092;2022-08-03T12:53:04;96212.34;;;36.65;nan
23303;BME280;11820;48.738;9.092;2022-08-03T12:55:31;96223.88;;;35.48;nan
23303;BME280;11820;48.738;9.092;2022-08-03T12:58:00;96215.97;;;35.05;nan
23303;BME280;11820;48.738;9.092;2022-08-03T13:00:26;96209.34;;;34.68;nan
23303;BME280;11820;48.738;9.092;2022-08-03T13:03:18;96206.69;;;35.18;nan
23303;BME280;11820;48.738;9.092;2022-08-03T13:05:43;96208.47;;;35.64;nan
23303;BME280;11820;48.738;9.092;2022-08-03T13:08:23;96207.00;;;37.17;nan
23303;BME280;11820;48.738;9.092;2022-08-03T13:10:49;96201.91;;;40.01;nan
23303;BME280;11820;48.738;9.092;2022-08-03T13:13:14;96197.47;;;43.59;nan
23303;BME280;11820;48.738;9.092;2022-08-03T13:15:39;96199.06;;;45.61;nan
23303;BME280;11820;48.738;9.092;2022-08-03T13:18:05;96200.88;;;42.89;nan
23303;BME280;11820;48.738;9.092;2022-08-03T13:20:30;96193.75;;;39.98;nan
23303;BME280;11820;48.738;9.092;2022-08-03T13:22:56;96192.75;;;38.44;nan
23303;BME280;11820;48.738;9.092;2022-08-03T13:25:22;96198.59;;;38.13;nan
23303;BME280;11820;48.738;9.092;2022-08-03T13:27:47;96202.84;;;38.14;nan
23303;BME280;11820;48.738;9.092;2022-08-03T13:30:14;96200.16;;;37.81;nan
23303;BME280;11820;48.738;9.092;2022-08-03T13:32:40;96190.06;;;37.78;nan
23303;BME280;11820;48.738;9.092;2022-08-03T13:35:06;96201.81;;;37.89;nan
23303;BME280;11820;48.738;9.092;2022-08-03T13:37:32;96190.88;;;38.12;nan
23303;BME280;11820;48.738;9.092;2022-08-03T13:39:59;96188.16;;;38.12;nan
23303;BME280;11820;48.738;9.092;2022-08-03T13:42:24;96183.25;;;38.64;nan
23303;BME280;11820;48.738;9.092;2022-08-03T13:44:50;96176.03;;;40.35;nan
23303;BME280;11820;48.738;9.092;2022-08-03T13:47:15;96183.44;;;40.70;nan
23303;BME280;11820;48.738;9.092;2022-08-03T13:49:41;96180.72;;;40.56;nan
23303;BME280;11820;48.738;9.092;2022-08-03T13:52:06;96176.25;;;39.10;nan
23303;BME280;11820;48.738;9.092;2022-08-03T13:54:31;96174.16;;;38.86;nan
23303;BME280;11820;48.738;9.092;2022-08-03T13:56:58;96169.66;;;38.14;nan
23303;BME280;11820;48.738;9.092;2022-08-03T13:59:24;96158.41;;;38.48;nan
23303;BME280;11820;48.738;9.092;2022-08-03T14:01:51;96162.84;;;38.30;nan
23303;BME280;11820;48.738;9.092;2022-08-03T14:04:17;96159.28;;;38.23;nan
23303;BME280;11820;48.738;9.092;2022-08-03T14:06:43;96158.84;;;37.81;nan
23303;BME280;11820;48.738;9.092;2022-08-03T14:09:10;96160.78;;;37.47;nan
23303;BME280;11820;48.738;9.092;2022-08-03T14:11:35;96152.69;;;38.17;nan